Portada
METAR-TAF:

METAR-TAF

Aeroports :

Camagüey, Cuba

latitud: 21-25N, longitud: 077-51W, altitud: 122 m

Observació

L'informe es va fer fa 28 minuts, a les 02:50 UTC
Vent 6 kt del Nord
Temperatura 21°C
Humitat 78%
Pressió 1017 hPa
Visibilitat: 9000 m
Núvols disperses a una alçada de 2500 ft

METAR: MUCM 300250Z 36006KT 9000 SCT025 21/17 Q1017

Hora: 22:18 (03:18 UTC)

Pronòstic

L'informe es va fer fa 4 hores i 18 minuts, a les 23:00 UTC
Pronòstic vàlid del 30 a les 00 UTC al 30 a les 24 UTC
Vent 8 kt del Nord
Visibilitat: 9000 m
Núvols disperses a una alçada de 2000 ft
Evolucionant progressivament
l' 30 a les 01 UTC al 30 a les 03 UTC
Vent 3 kt amb direcció variable
Evolucionant progressivament
l' 30 a les 15 UTC al 30 a les 17 UTC
Vent 8 kt del Nord-Est

TAF: MUCM 292300Z 3000/3024 01008KT 9000 SCT020 BECMG 3001/3003 VRB03KT BECMG 3015/3017 05008KT

Observacions i pronòstics meteorològics de més de 4000 aeroports (METAR i TAF).

Les estacions disponibles són els punts grocs i vermells al mapa.

Posi el ratolí al punt desitjat per veure el nom de l'estació.

Feu clic per veure les observacions i els pronòstics meteorològics.

Per canviar el mapa: feu clic els botons verds amb una creu de color negre per apropar; al botó verd amb un guió per allunyar la imatge; o en les fletxes verdes per a mapes adjacents.


METAR-TAF: